sensor_id;sensor_type;location;lat;lon;timestamp;pressure;altitude;pressure_sealevel;temperature;humidity
46045;BME280;31781;54.094;13.428;2022-09-09T00:03:55;100938.13;;;15.71;74.71
46045;BME280;31781;54.094;13.428;2022-09-09T00:09:04;100942.31;;;15.74;72.58
46045;BME280;31781;54.094;13.428;2022-09-09T00:14:18;100942.53;;;15.72;74.77
46045;BME280;31781;54.094;13.428;2022-09-09T00:19:34;100959.37;;;15.76;73.58
46045;BME280;31781;54.094;13.428;2022-09-09T00:24:44;100951.75;;;15.78;74.21
46045;BME280;31781;54.094;13.428;2022-09-09T00:29:52;100936.34;;;15.77;75.13
46045;BME280;31781;54.094;13.428;2022-09-09T00:35:16;100945.41;;;15.77;75.04
46045;BME280;31781;54.094;13.428;2022-09-09T00:40:33;100956.97;;;15.79;74.89
46045;BME280;31781;54.094;13.428;2022-09-09T00:46:08;100950.06;;;15.77;75.91
46045;BME280;31781;54.094;13.428;2022-09-09T00:51:25;100954.22;;;15.79;74.27
46045;BME280;31781;54.094;13.428;2022-09-09T00:56:36;100963.31;;;15.80;74.30
46045;BME280;31781;54.094;13.428;2022-09-09T01:07:05;100961.06;;;15.88;73.84
46045;BME280;31781;54.094;13.428;2022-09-09T01:17:53;100965.00;;;15.92;73.82
46045;BME280;31781;54.094;13.428;2022-09-09T01:23:16;100965.09;;;15.86;73.63
46045;BME280;31781;54.094;13.428;2022-09-09T01:28:28;100967.84;;;15.86;73.97
46045;BME280;31781;54.094;13.428;2022-09-09T01:33:47;100962.25;;;15.92;73.56
46045;BME280;31781;54.094;13.428;2022-09-09T01:38:51;100977.16;;;15.85;74.28
46045;BME280;31781;54.094;13.428;2022-09-09T01:43:55;100975.47;;;15.84;75.55
46045;BME280;31781;54.094;13.428;2022-09-09T01:59:49;100983.72;;;15.84;73.15
46045;BME280;31781;54.094;13.428;2022-09-09T02:05:07;100990.38;;;15.76;73.38
46045;BME280;31781;54.094;13.428;2022-09-09T02:10:21;100998.00;;;15.74;74.90
46045;BME280;31781;54.094;13.428;2022-09-09T02:15:45;101012.22;;;15.83;73.61
46045;BME280;31781;54.094;13.428;2022-09-09T02:26:14;101014.72;;;15.84;73.42
46045;BME280;31781;54.094;13.428;2022-09-09T02:31:22;101007.44;;;15.78;74.18
46045;BME280;31781;54.094;13.428;2022-09-09T02:36:32;101006.63;;;15.78;75.85
46045;BME280;31781;54.094;13.428;2022-09-09T02:41:42;101020.91;;;15.80;74.98
46045;BME280;31781;54.094;13.428;2022-09-09T02:47:18;101021.50;;;15.82;74.39
46045;BME280;31781;54.094;13.428;2022-09-09T02:52:27;101028.19;;;15.86;72.97
46045;BME280;31781;54.094;13.428;2022-09-09T03:03:01;101029.28;;;15.96;73.06
46045;BME280;31781;54.094;13.428;2022-09-09T03:08:05;101030.22;;;15.90;74.13
46045;BME280;31781;54.094;13.428;2022-09-09T03:13:08;101020.09;;;15.91;75.87
46045;BME280;31781;54.094;13.428;2022-09-09T03:18:16;101028.09;;;15.92;75.66
46045;BME280;31781;54.094;13.428;2022-09-09T03:23:19;101026.78;;;15.95;73.99
46045;BME280;31781;54.094;13.428;2022-09-09T03:28:22;101034.75;;;15.96;75.44
46045;BME280;31781;54.094;13.428;2022-09-09T03:33:31;101038.13;;;15.98;75.23
46045;BME280;31781;54.094;13.428;2022-09-09T03:38:34;101037.41;;;16.03;73.30
46045;BME280;31781;54.094;13.428;2022-09-09T03:43:37;101051.72;;;16.05;75.09
46045;BME280;31781;54.094;13.428;2022-09-09T03:48:57;101053.63;;;16.16;72.78
46045;BME280;31781;54.094;13.428;2022-09-09T03:54:00;101056.28;;;16.11;73.35
46045;BME280;31781;54.094;13.428;2022-09-09T04:09:57;101043.16;;;16.25;72.13
46045;BME280;31781;54.094;13.428;2022-09-09T04:14:59;101051.25;;;16.20;72.89
46045;BME280;31781;54.094;13.428;2022-09-09T04:20:02;101057.59;;;16.20;74.41
46045;BME280;31781;54.094;13.428;2022-09-09T04:25:11;101058.16;;;16.22;74.65
46045;BME280;31781;54.094;13.428;2022-09-09T04:30:14;101054.34;;;16.23;73.38
46045;BME280;31781;54.094;13.428;2022-09-09T04:35:16;101062.38;;;16.25;74.71
46045;BME280;31781;54.094;13.428;2022-09-09T04:40:38;101052.94;;;16.32;72.37
46045;BME280;31781;54.094;13.428;2022-09-09T04:45:41;101073.09;;;16.26;72.95
46045;BME280;31781;54.094;13.428;2022-09-09T04:50:53;101079.69;;;16.25;73.98
46045;BME280;31781;54.094;13.428;2022-09-09T04:56:07;101094.00;;;16.27;72.60
46045;BME280;31781;54.094;13.428;2022-09-09T05:01:14;101097.34;;;16.29;72.68
46045;BME280;31781;54.094;13.428;2022-09-09T05:06:19;101094.00;;;16.27;74.15
46045;BME280;31781;54.094;13.428;2022-09-09T05:11:40;101094.50;;;16.36;72.22
46045;BME280;31781;54.094;13.428;2022-09-09T05:22:07;101095.91;;;16.38;72.36
46045;BME280;31781;54.094;13.428;2022-09-09T05:27:10;101102.94;;;16.34;72.90
46045;BME280;31781;54.094;13.428;2022-09-09T05:37:32;101118.59;;;16.45;72.63
46045;BME280;31781;54.094;13.428;2022-09-09T05:42:35;101113.81;;;16.41;73.49
46045;BME280;31781;54.094;13.428;2022-09-09T05:47:59;101104.16;;;16.50;72.61
46045;BME280;31781;54.094;13.428;2022-09-09T05:53:02;101112.63;;;16.48;72.52
46045;BME280;31781;54.094;13.428;2022-09-09T05:58:05;101109.41;;;16.51;74.31
46045;BME280;31781;54.094;13.428;2022-09-09T06:03:14;101105.97;;;16.56;74.87
46045;BME280;31781;54.094;13.428;2022-09-09T06:08:17;101121.50;;;16.62;73.27
46045;BME280;31781;54.094;13.428;2022-09-09T06:13:39;101120.41;;;16.75;72.15
46045;BME280;31781;54.094;13.428;2022-09-09T06:18:44;101125.06;;;16.74;73.00
46045;BME280;31781;54.094;13.428;2022-09-09T06:24:04;101128.66;;;16.86;72.46
46045;BME280;31781;54.094;13.428;2022-09-09T06:29:26;101137.38;;;16.95;72.05
46045;BME280;31781;54.094;13.428;2022-09-09T06:34:29;101137.00;;;16.91;73.01
46045;BME280;31781;54.094;13.428;2022-09-09T06:39:32;101158.50;;;16.94;74.36
46045;BME280;31781;54.094;13.428;2022-09-09T06:44:46;101153.13;;;16.99;74.27
46045;BME280;31781;54.094;13.428;2022-09-09T06:49:49;101158.50;;;17.06;72.86
46045;BME280;31781;54.094;13.428;2022-09-09T06:55:28;101158.47;;;17.18;72.18
46045;BME280;31781;54.094;13.428;2022-09-09T07:00:31;101156.56;;;17.18;72.01
46045;BME280;31781;54.094;13.428;2022-09-09T07:11:02;101156.41;;;17.36;72.30
46045;BME280;31781;54.094;13.428;2022-09-09T07:16:14;101166.91;;;17.39;72.42
46045;BME280;31781;54.094;13.428;2022-09-09T07:21:19;101172.75;;;17.43;73.75
46045;BME280;31781;54.094;13.428;2022-09-09T07:26:29;101183.84;;;17.48;73.80
46045;BME280;31781;54.094;13.428;2022-09-09T07:36:57;101194.97;;;17.65;71.69
46045;BME280;31781;54.094;13.428;2022-09-09T07:42:00;101191.38;;;17.64;71.84
46045;BME280;31781;54.094;13.428;2022-09-09T07:47:03;101197.06;;;17.74;73.52
46045;BME280;31781;54.094;13.428;2022-09-09T07:52:12;101200.63;;;17.86;73.54
46045;BME280;31781;54.094;13.428;2022-09-09T07:57:19;101197.09;;;18.03;72.29
46045;BME280;31781;54.094;13.428;2022-09-09T08:02:22;101208.28;;;18.13;72.86
46045;BME280;31781;54.094;13.428;2022-09-09T08:07:43;101196.53;;;18.34;71.37
46045;BME280;31781;54.094;13.428;2022-09-09T08:12:46;101210.97;;;18.41;70.94
46045;BME280;31781;54.094;13.428;2022-09-09T08:23:24;101210.78;;;18.59;69.64
46045;BME280;31781;54.094;13.428;2022-09-09T08:28:27;101202.50;;;18.59;69.64
46045;BME280;31781;54.094;13.428;2022-09-09T08:33:30;101207.34;;;18.69;70.72
46045;BME280;31781;54.094;13.428;2022-09-09T08:38:53;101203.31;;;18.93;69.72
46045;BME280;31781;54.094;13.428;2022-09-09T08:44:02;101207.66;;;19.06;69.61
46045;BME280;31781;54.094;13.428;2022-09-09T08:54:34;101199.22;;;19.56;68.37
46045;BME280;31781;54.094;13.428;2022-09-09T08:59:54;101200.91;;;19.78;67.62
46045;BME280;31781;54.094;13.428;2022-09-09T09:05:08;101210.75;;;19.96;67.74
46045;BME280;31781;54.094;13.428;2022-09-09T09:10:32;101217.66;;;20.20;66.88
46045;BME280;31781;54.094;13.428;2022-09-09T09:21:17;101225.28;;;20.67;66.51
46045;BME280;31781;54.094;13.428;2022-09-09T09:26:26;101229.78;;;20.73;65.35
46045;BME280;31781;54.094;13.428;2022-09-09T09:31:32;101228.75;;;20.89;64.58
46045;BME280;31781;54.094;13.428;2022-09-09T09:42:09;101223.81;;;21.28;64.03
46045;BME280;31781;54.094;13.428;2022-09-09T09:47:14;101230.22;;;21.39;63.65
46045;BME280;31781;54.094;13.428;2022-09-09T09:52:22;101228.66;;;21.63;62.70
46045;BME280;31781;54.094;13.428;2022-09-09T09:57:32;101241.22;;;21.85;61.91
46045;BME280;31781;54.094;13.428;2022-09-09T10:02:38;101233.63;;;22.28;61.35
46045;BME280;31781;54.094;13.428;2022-09-09T10:07:41;101237.25;;;22.54;60.62
46045;BME280;31781;54.094;13.428;2022-09-09T10:12:59;101234.78;;;22.77;59.92
46045;BME280;31781;54.094;13.428;2022-09-09T10:18:16;101232.25;;;22.96;60.40
46045;BME280;31781;54.094;13.428;2022-09-09T10:23:47;101235.28;;;23.20;60.18
46045;BME280;31781;54.094;13.428;2022-09-09T10:29:08;101230.88;;;23.09;59.36
46045;BME280;31781;54.094;13.428;2022-09-09T10:34:33;101228.94;;;23.04;59.31
46045;BME280;31781;54.094;13.428;2022-09-09T10:39:47;101229.47;;;23.16;58.79
46045;BME280;31781;54.094;13.428;2022-09-09T10:45:05;101224.69;;;23.32;58.59
46045;BME280;31781;54.094;13.428;2022-09-09T10:50:29;101222.94;;;23.61;59.06
46045;BME280;31781;54.094;13.428;2022-09-09T10:56:06;101228.03;;;24.03;58.13
46045;BME280;31781;54.094;13.428;2022-09-09T11:01:16;101229.75;;;24.43;56.78
46045;BME280;31781;54.094;13.428;2022-09-09T11:06:26;101234.69;;;24.51;55.85
46045;BME280;31781;54.094;13.428;2022-09-09T11:11:44;101230.09;;;24.70;55.04
46045;BME280;31781;54.094;13.428;2022-09-09T11:16:52;101239.69;;;24.88;55.55
46045;BME280;31781;54.094;13.428;2022-09-09T11:21:58;101243.19;;;25.28;54.30
46045;BME280;31781;54.094;13.428;2022-09-09T11:27:11;101234.28;;;25.78;52.40
46045;BME280;31781;54.094;13.428;2022-09-09T11:32:34;101238.03;;;26.11;53.48
46045;BME280;31781;54.094;13.428;2022-09-09T11:37:57;101245.75;;;26.19;53.64
46045;BME280;31781;54.094;13.428;2022-09-09T11:43:16;101241.69;;;26.30;53.07
46045;BME280;31781;54.094;13.428;2022-09-09T11:53:59;101247.94;;;26.41;52.31
46045;BME280;31781;54.094;13.428;2022-09-09T11:59:04;101253.28;;;26.37;52.25
46045;BME280;31781;54.094;13.428;2022-09-09T12:04:30;101249.44;;;26.33;50.51
46045;BME280;31781;54.094;13.428;2022-09-09T12:09:56;101247.09;;;26.59;52.81
46045;BME280;31781;54.094;13.428;2022-09-09T12:15:17;101229.97;;;26.98;52.12
46045;BME280;31781;54.094;13.428;2022-09-09T12:20:23;101234.06;;;27.19;51.54
46045;BME280;31781;54.094;13.428;2022-09-09T12:25:47;101226.81;;;27.18;47.71
46045;BME280;31781;54.094;13.428;2022-09-09T12:30:56;101217.88;;;27.02;50.33
46045;BME280;31781;54.094;13.428;2022-09-09T12:36:04;101216.41;;;26.91;49.68
46045;BME280;31781;54.094;13.428;2022-09-09T12:41:27;101216.41;;;26.91;50.82
46045;BME280;31781;54.094;13.428;2022-09-09T12:46:35;101219.34;;;26.81;50.29
46045;BME280;31781;54.094;13.428;2022-09-09T12:51:43;101219.63;;;26.80;48.59
46045;BME280;31781;54.094;13.428;2022-09-09T12:56:51;101212.50;;;26.74;49.47
46045;BME280;31781;54.094;13.428;2022-09-09T13:01:58;101225.69;;;26.68;49.66
46045;BME280;31781;54.094;13.428;2022-09-09T13:07:08;101216.37;;;26.59;49.34
46045;BME280;31781;54.094;13.428;2022-09-09T13:17:29;101204.62;;;26.43;50.25
46045;BME280;31781;54.094;13.428;2022-09-09T13:22:35;101209.50;;;26.19;50.05
46045;BME280;31781;54.094;13.428;2022-09-09T13:27:40;101208.00;;;26.03;49.93
46045;BME280;31781;54.094;13.428;2022-09-09T13:33:00;101196.69;;;25.94;49.76
46045;BME280;31781;54.094;13.428;2022-09-09T13:38:09;101197.06;;;25.88;51.47
46045;BME280;31781;54.094;13.428;2022-09-09T13:43:18;101186.91;;;25.78;51.61
46045;BME280;31781;54.094;13.428;2022-09-09T13:48:28;101184.62;;;25.80;51.66
46045;BME280;31781;54.094;13.428;2022-09-09T13:58:51;101180.19;;;26.16;51.71
46045;BME280;31781;54.094;13.428;2022-09-09T14:03:54;101181.44;;;26.29;51.27
46045;BME280;31781;54.094;13.428;2022-09-09T14:08:56;101183.75;;;26.41;49.35
46045;BME280;31781;54.094;13.428;2022-09-09T14:14:08;101193.25;;;26.40;49.27
46045;BME280;31781;54.094;13.428;2022-09-09T14:19:10;101191.97;;;26.32;50.80
46045;BME280;31781;54.094;13.428;2022-09-09T14:24:13;101181.50;;;26.24;48.04
46045;BME280;31781;54.094;13.428;2022-09-09T14:29:21;101181.00;;;26.17;48.90
46045;BME280;31781;54.094;13.428;2022-09-09T14:34:24;101178.38;;;26.07;50.05
46045;BME280;31781;54.094;13.428;2022-09-09T14:39:27;101173.88;;;25.92;49.52
46045;BME280;31781;54.094;13.428;2022-09-09T14:49:49;101157.56;;;25.62;50.70
46045;BME280;31781;54.094;13.428;2022-09-09T14:54:53;101163.44;;;25.37;51.02
46045;BME280;31781;54.094;13.428;2022-09-09T14:59:56;101161.38;;;25.24;50.20
46045;BME280;31781;54.094;13.428;2022-09-09T15:05:04;101169.59;;;25.10;51.55
46045;BME280;31781;54.094;13.428;2022-09-09T15:10:08;101158.53;;;25.05;52.56
46045;BME280;31781;54.094;13.428;2022-09-09T15:15:11;101161.84;;;25.07;52.42
46045;BME280;31781;54.094;13.428;2022-09-09T15:20:19;101160.47;;;25.04;52.51
46045;BME280;31781;54.094;13.428;2022-09-09T15:25:22;101170.59;;;24.95;53.89
46045;BME280;31781;54.094;13.428;2022-09-09T15:30:25;101175.50;;;24.75;54.41
46045;BME280;31781;54.094;13.428;2022-09-09T15:35:34;101176.84;;;24.48;54.60
46045;BME280;31781;54.094;13.428;2022-09-09T15:40:37;101173.47;;;24.17;54.86
46045;BME280;31781;54.094;13.428;2022-09-09T15:45:40;101176.44;;;23.87;56.04
46045;BME280;31781;54.094;13.428;2022-09-09T15:51:01;101176.56;;;23.62;56.15
46045;BME280;31781;54.094;13.428;2022-09-09T15:56:27;101182.75;;;23.39;55.35
46045;BME280;31781;54.094;13.428;2022-09-09T16:01:31;101176.72;;;23.11;56.51
46045;BME280;31781;54.094;13.428;2022-09-09T16:06:39;101185.66;;;22.88;56.96
46045;BME280;31781;54.094;13.428;2022-09-09T16:11:42;101194.53;;;22.65;56.82
46045;BME280;31781;54.094;13.428;2022-09-09T16:16:45;101185.09;;;22.41;57.89
46045;BME280;31781;54.094;13.428;2022-09-09T16:21:54;101175.13;;;22.19;58.39
46045;BME280;31781;54.094;13.428;2022-09-09T16:26:56;101186.16;;;21.99;58.13
46045;BME280;31781;54.094;13.428;2022-09-09T16:31:59;101183.59;;;21.82;59.35
46045;BME280;31781;54.094;13.428;2022-09-09T16:37:11;101186.88;;;21.64;60.25
46045;BME280;31781;54.094;13.428;2022-09-09T16:42:14;101194.31;;;21.54;59.12
46045;BME280;31781;54.094;13.428;2022-09-09T16:47:17;101174.28;;;21.36;61.37
46045;BME280;31781;54.094;13.428;2022-09-09T16:52:25;101176.47;;;21.24;62.04
46045;BME280;31781;54.094;13.428;2022-09-09T16:57:28;101209.03;;;21.12;60.81
46045;BME280;31781;54.094;13.428;2022-09-09T17:02:31;101219.19;;;21.02;62.96
46045;BME280;31781;54.094;13.428;2022-09-09T17:07:39;101198.34;;;20.89;63.57
46045;BME280;31781;54.094;13.428;2022-09-09T17:12:43;101219.25;;;20.75;62.42
46045;BME280;31781;54.094;13.428;2022-09-09T17:17:49;101213.78;;;20.48;66.12
46045;BME280;31781;54.094;13.428;2022-09-09T17:22:58;101150.19;;;20.16;64.14
46045;BME280;31781;54.094;13.428;2022-09-09T17:28:01;101167.59;;;19.90;65.14
46045;BME280;31781;54.094;13.428;2022-09-09T17:33:05;101209.63;;;19.70;67.54
46045;BME280;31781;54.094;13.428;2022-09-09T17:38:14;101229.28;;;19.52;67.66
46045;BME280;31781;54.094;13.428;2022-09-09T17:43:17;101218.53;;;19.34;66.53
46045;BME280;31781;54.094;13.428;2022-09-09T17:48:20;101240.37;;;19.19;69.02
46045;BME280;31781;54.094;13.428;2022-09-09T17:53:28;101253.19;;;19.08;69.14
46045;BME280;31781;54.094;13.428;2022-09-09T17:58:31;101258.88;;;19.02;67.58
46045;BME280;31781;54.094;13.428;2022-09-09T18:03:34;101253.59;;;19.00;69.62
46045;BME280;31781;54.094;13.428;2022-09-09T18:08:47;101272.91;;;19.00;69.89
46045;BME280;31781;54.094;13.428;2022-09-09T18:13:51;101280.84;;;18.96;66.21
46045;BME280;31781;54.094;13.428;2022-09-09T18:18:56;101301.59;;;18.82;65.14
46045;BME280;31781;54.094;13.428;2022-09-09T18:24:06;101264.41;;;18.68;65.43
46045;BME280;31781;54.094;13.428;2022-09-09T18:29:26;101259.41;;;18.65;64.48
46045;BME280;31781;54.094;13.428;2022-09-09T18:34:47;101256.81;;;18.59;64.39
46045;BME280;31781;54.094;13.428;2022-09-09T18:39:55;101249.88;;;18.44;65.06
46045;BME280;31781;54.094;13.428;2022-09-09T18:45:15;101258.16;;;18.44;65.24
46045;BME280;31781;54.094;13.428;2022-09-09T18:50:19;101272.38;;;18.36;66.50
46045;BME280;31781;54.094;13.428;2022-09-09T18:55:22;101277.50;;;18.33;68.11
46045;BME280;31781;54.094;13.428;2022-09-09T19:00:31;101311.31;;;18.28;69.26
46045;BME280;31781;54.094;13.428;2022-09-09T19:05:35;101312.44;;;18.16;65.96
46045;BME280;31781;54.094;13.428;2022-09-09T19:10:37;101326.59;;;18.08;67.23
46045;BME280;31781;54.094;13.428;2022-09-09T19:15:46;101303.88;;;18.00;67.55
46045;BME280;31781;54.094;13.428;2022-09-09T19:21:16;101305.06;;;18.05;66.00
46045;BME280;31781;54.094;13.428;2022-09-09T19:26:20;101290.03;;;17.95;66.28
46045;BME280;31781;54.094;13.428;2022-09-09T19:31:23;101304.25;;;17.92;69.15
46045;BME280;31781;54.094;13.428;2022-09-09T19:36:31;101301.41;;;17.87;69.40
46045;BME280;31781;54.094;13.428;2022-09-09T19:41:35;101310.97;;;17.85;67.89
46045;BME280;31781;54.094;13.428;2022-09-09T19:46:42;101306.44;;;17.79;70.45
46045;BME280;31781;54.094;13.428;2022-09-09T19:51:51;101302.84;;;17.78;71.53
46045;BME280;31781;54.094;13.428;2022-09-09T19:56:54;101304.53;;;17.79;70.15
46045;BME280;31781;54.094;13.428;2022-09-09T20:02:14;101314.56;;;17.85;69.12
46045;BME280;31781;54.094;13.428;2022-09-09T20:12:36;101302.59;;;17.91;69.70
46045;BME280;31781;54.094;13.428;2022-09-09T20:17:38;101290.87;;;17.84;71.08
46045;BME280;31781;54.094;13.428;2022-09-09T20:22:41;101285.38;;;17.84;72.76
46045;BME280;31781;54.094;13.428;2022-09-09T20:27:51;101273.28;;;17.85;72.15
46045;BME280;31781;54.094;13.428;2022-09-09T20:32:55;101268.59;;;17.86;70.83
46045;BME280;31781;54.094;13.428;2022-09-09T20:37:58;101269.09;;;17.83;72.86
46045;BME280;31781;54.094;13.428;2022-09-09T20:43:14;101274.03;;;17.81;73.04
46045;BME280;31781;54.094;13.428;2022-09-09T20:48:16;101265.78;;;17.81;70.98
46045;BME280;31781;54.094;13.428;2022-09-09T20:53:19;101267.91;;;17.79;73.27
46045;BME280;31781;54.094;13.428;2022-09-09T20:58:30;101267.06;;;17.78;73.23
46045;BME280;31781;54.094;13.428;2022-09-09T21:03:35;101259.91;;;17.77;71.36
46045;BME280;31781;54.094;13.428;2022-09-09T21:08:38;101261.47;;;17.73;73.56
46045;BME280;31781;54.094;13.428;2022-09-09T21:13:47;101251.78;;;17.71;73.47
46045;BME280;31781;54.094;13.428;2022-09-09T21:18:50;101242.69;;;17.70;71.96
46045;BME280;31781;54.094;13.428;2022-09-09T21:23:54;101235.75;;;17.68;73.10
46045;BME280;31781;54.094;13.428;2022-09-09T21:29:03;101227.75;;;17.66;73.64
46045;BME280;31781;54.094;13.428;2022-09-09T21:34:05;101217.00;;;17.65;72.46
46045;BME280;31781;54.094;13.428;2022-09-09T21:39:09;101217.72;;;17.60;73.96
46045;BME280;31781;54.094;13.428;2022-09-09T21:44:17;101222.63;;;17.58;74.32
46045;BME280;31781;54.094;13.428;2022-09-09T21:49:20;101219.50;;;17.55;72.77
46045;BME280;31781;54.094;13.428;2022-09-09T21:54:23;101234.81;;;17.50;74.75
46045;BME280;31781;54.094;13.428;2022-09-09T21:59:31;101245.47;;;17.47;74.29
46045;BME280;31781;54.094;13.428;2022-09-09T22:04:34;101254.22;;;17.44;72.86
46045;BME280;31781;54.094;13.428;2022-09-09T22:09:37;101256.63;;;17.40;74.27
46045;BME280;31781;54.094;13.428;2022-09-09T22:14:46;101259.25;;;17.35;74.23
46045;BME280;31781;54.094;13.428;2022-09-09T22:19:49;101267.16;;;17.32;72.30
46045;BME280;31781;54.094;13.428;2022-09-09T22:24:52;101260.44;;;17.28;73.52
46045;BME280;31781;54.094;13.428;2022-09-09T22:30:01;101268.94;;;17.26;73.67
46045;BME280;31781;54.094;13.428;2022-09-09T22:35:06;101277.66;;;17.23;72.74
46045;BME280;31781;54.094;13.428;2022-09-09T22:40:09;101273.38;;;17.16;74.31
46045;BME280;31781;54.094;13.428;2022-09-09T22:45:17;101269.19;;;17.13;74.10
46045;BME280;31781;54.094;13.428;2022-09-09T22:50:20;101260.81;;;17.08;72.85
46045;BME280;31781;54.094;13.428;2022-09-09T22:55:24;101265.59;;;17.01;73.89
46045;BME280;31781;54.094;13.428;2022-09-09T23:00:38;101269.41;;;17.00;73.51
46045;BME280;31781;54.094;13.428;2022-09-09T23:05:41;101266.31;;;16.96;71.74
46045;BME280;31781;54.094;13.428;2022-09-09T23:10:44;101259.88;;;16.91;74.11
46045;BME280;31781;54.094;13.428;2022-09-09T23:16:07;101259.88;;;16.91;71.44
46045;BME280;31781;54.094;13.428;2022-09-09T23:21:12;101262.38;;;16.81;71.44
46045;BME280;31781;54.094;13.428;2022-09-09T23:26:16;101255.31;;;16.73;72.90
46045;BME280;31781;54.094;13.428;2022-09-09T23:31:27;101257.06;;;16.68;73.23
46045;BME280;31781;54.094;13.428;2022-09-09T23:36:30;101249.53;;;16.63;71.80
46045;BME280;31781;54.094;13.428;2022-09-09T23:41:34;101250.94;;;16.54;73.52
46045;BME280;31781;54.094;13.428;2022-09-09T23:46:42;101249.97;;;16.48;74.24
46045;BME280;31781;54.094;13.428;2022-09-09T23:52:00;101249.50;;;16.51;71.47
46045;BME280;31781;54.094;13.428;2022-09-09T23:57:04;101242.91;;;16.41;72.33
